sensor_id;sensor_type;location;lat;lon;timestamp;P1;durP1;ratioP1;P2;durP2;ratioP2
44774;SDS011;31340;51.402;0.016;2023-04-06T00:01:57;34.13;;;20.35;;
44774;SDS011;31340;51.402;0.016;2023-04-06T00:04:25;33.63;;;19.35;;
44774;SDS011;31340;51.402;0.016;2023-04-06T00:06:53;35.90;;;20.55;;
44774;SDS011;31340;51.402;0.016;2023-04-06T00:09:21;34.03;;;19.40;;
44774;SDS011;31340;51.402;0.016;2023-04-06T00:11:48;33.28;;;18.95;;
44774;SDS011;31340;51.402;0.016;2023-04-06T00:14:15;31.98;;;19.15;;
44774;SDS011;31340;51.402;0.016;2023-04-06T00:16:44;30.23;;;17.52;;
44774;SDS011;31340;51.402;0.016;2023-04-06T00:19:12;34.08;;;19.13;;
44774;SDS011;31340;51.402;0.016;2023-04-06T00:21:40;27.80;;;16.50;;
44774;SDS011;31340;51.402;0.016;2023-04-06T00:24:08;30.55;;;18.00;;
44774;SDS011;31340;51.402;0.016;2023-04-06T00:26:36;30.50;;;18.17;;
44774;SDS011;31340;51.402;0.016;2023-04-06T00:29:05;34.15;;;18.52;;
44774;SDS011;31340;51.402;0.016;2023-04-06T00:31:33;31.98;;;17.50;;
44774;SDS011;31340;51.402;0.016;2023-04-06T00:34:01;28.33;;;16.65;;
44774;SDS011;31340;51.402;0.016;2023-04-06T00:36:28;25.58;;;15.75;;
44774;SDS011;31340;51.402;0.016;2023-04-06T00:38:56;29.30;;;16.88;;
44774;SDS011;31340;51.402;0.016;2023-04-06T00:41:24;26.38;;;16.05;;
44774;SDS011;31340;51.402;0.016;2023-04-06T00:43:53;23.42;;;14.20;;
44774;SDS011;31340;51.402;0.016;2023-04-06T00:46:22;20.02;;;12.98;;
44774;SDS011;31340;51.402;0.016;2023-04-06T00:48:50;20.05;;;12.40;;
44774;SDS011;31340;51.402;0.016;2023-04-06T00:51:18;18.00;;;11.73;;
44774;SDS011;31340;51.402;0.016;2023-04-06T00:53:45;17.70;;;10.77;;
44774;SDS011;31340;51.402;0.016;2023-04-06T00:56:14;16.02;;;10.25;;
44774;SDS011;31340;51.402;0.016;2023-04-06T00:58:49;14.95;;;9.68;;
44774;SDS011;31340;51.402;0.016;2023-04-06T01:01:17;13.75;;;9.50;;
44774;SDS011;31340;51.402;0.016;2023-04-06T01:03:47;12.02;;;8.38;;
44774;SDS011;31340;51.402;0.016;2023-04-06T01:06:19;13.00;;;7.60;;
44774;SDS011;31340;51.402;0.016;2023-04-06T01:08:55;12.30;;;8.10;;
44774;SDS011;31340;51.402;0.016;2023-04-06T01:11:25;10.75;;;7.45;;
44774;SDS011;31340;51.402;0.016;2023-04-06T01:13:53;9.38;;;6.63;;
44774;SDS011;31340;51.402;0.016;2023-04-06T01:16:28;11.88;;;7.13;;
44774;SDS011;31340;51.402;0.016;2023-04-06T01:19:11;10.70;;;7.40;;
44774;SDS011;31340;51.402;0.016;2023-04-06T01:21:44;9.68;;;6.45;;
44774;SDS011;31340;51.402;0.016;2023-04-06T01:24:39;7.72;;;5.45;;
44774;SDS011;31340;51.402;0.016;2023-04-06T01:27:25;6.65;;;4.93;;
44774;SDS011;31340;51.402;0.016;2023-04-06T01:30:11;6.68;;;5.53;;
44774;SDS011;31340;51.402;0.016;2023-04-06T01:32:49;10.30;;;5.30;;
44774;SDS011;31340;51.402;0.016;2023-04-06T01:35:29;7.40;;;5.63;;
44774;SDS011;31340;51.402;0.016;2023-04-06T01:38:10;8.18;;;5.47;;
44774;SDS011;31340;51.402;0.016;2023-04-06T01:40:37;6.13;;;4.53;;
44774;SDS011;31340;51.402;0.016;2023-04-06T01:43:05;5.57;;;4.55;;
44774;SDS011;31340;51.402;0.016;2023-04-06T01:45:42;5.95;;;4.47;;
44774;SDS011;31340;51.402;0.016;2023-04-06T01:48:16;5.40;;;4.25;;
44774;SDS011;31340;51.402;0.016;2023-04-06T01:50:44;5.95;;;4.88;;
44774;SDS011;31340;51.402;0.016;2023-04-06T01:53:16;5.57;;;4.90;;
44774;SDS011;31340;51.402;0.016;2023-04-06T01:55:45;5.10;;;3.95;;
44774;SDS011;31340;51.402;0.016;2023-04-06T01:58:19;5.18;;;4.07;;
44774;SDS011;31340;51.402;0.016;2023-04-06T02:00:47;4.13;;;3.60;;
44774;SDS011;31340;51.402;0.016;2023-04-06T02:03:16;5.78;;;4.13;;
44774;SDS011;31340;51.402;0.016;2023-04-06T02:05:45;4.38;;;3.92;;
44774;SDS011;31340;51.402;0.016;2023-04-06T02:08:31;4.70;;;3.70;;
44774;SDS011;31340;51.402;0.016;2023-04-06T02:10:59;4.25;;;3.72;;
44774;SDS011;31340;51.402;0.016;2023-04-06T02:13:36;3.85;;;3.45;;
44774;SDS011;31340;51.402;0.016;2023-04-06T02:16:03;4.57;;;3.70;;
44774;SDS011;31340;51.402;0.016;2023-04-06T02:18:31;3.95;;;3.00;;
44774;SDS011;31340;51.402;0.016;2023-04-06T02:20:59;6.82;;;4.00;;
44774;SDS011;31340;51.402;0.016;2023-04-06T02:23:26;4.43;;;3.65;;
44774;SDS011;31340;51.402;0.016;2023-04-06T02:25:56;3.75;;;3.30;;
44774;SDS011;31340;51.402;0.016;2023-04-06T02:28:24;4.68;;;3.72;;
44774;SDS011;31340;51.402;0.016;2023-04-06T02:30:51;4.60;;;3.30;;
44774;SDS011;31340;51.402;0.016;2023-04-06T02:33:23;4.70;;;3.40;;
44774;SDS011;31340;51.402;0.016;2023-04-06T02:35:51;4.60;;;3.40;;
44774;SDS011;31340;51.402;0.016;2023-04-06T02:38:19;3.42;;;3.00;;
44774;SDS011;31340;51.402;0.016;2023-04-06T02:40:47;3.92;;;3.45;;
44774;SDS011;31340;51.402;0.016;2023-04-06T02:43:19;4.35;;;3.90;;
44774;SDS011;31340;51.402;0.016;2023-04-06T02:45:50;4.93;;;4.28;;
44774;SDS011;31340;51.402;0.016;2023-04-06T02:48:20;5.40;;;4.60;;
44774;SDS011;31340;51.402;0.016;2023-04-06T02:50:47;5.70;;;4.88;;
44774;SDS011;31340;51.402;0.016;2023-04-06T02:53:15;7.47;;;5.63;;
44774;SDS011;31340;51.402;0.016;2023-04-06T02:55:43;6.65;;;5.22;;
44774;SDS011;31340;51.402;0.016;2023-04-06T02:58:10;7.88;;;5.45;;
44774;SDS011;31340;51.402;0.016;2023-04-06T03:00:49;7.55;;;5.78;;
44774;SDS011;31340;51.402;0.016;2023-04-06T03:03:17;7.80;;;5.90;;
44774;SDS011;31340;51.402;0.016;2023-04-06T03:05:45;7.35;;;5.43;;
44774;SDS011;31340;51.402;0.016;2023-04-06T03:08:15;6.30;;;4.70;;
44774;SDS011;31340;51.402;0.016;2023-04-06T03:10:45;4.32;;;3.42;;
44774;SDS011;31340;51.402;0.016;2023-04-06T03:13:14;4.60;;;3.20;;
44774;SDS011;31340;51.402;0.016;2023-04-06T03:15:54;3.63;;;3.00;;
44774;SDS011;31340;51.402;0.016;2023-04-06T03:18:23;2.60;;;2.40;;
44774;SDS011;31340;51.402;0.016;2023-04-06T03:20:53;2.90;;;2.30;;
44774;SDS011;31340;51.402;0.016;2023-04-06T03:23:25;2.28;;;1.83;;
44774;SDS011;31340;51.402;0.016;2023-04-06T03:25:57;1.90;;;1.50;;
44774;SDS011;31340;51.402;0.016;2023-04-06T03:28:25;1.70;;;1.55;;
44774;SDS011;31340;51.402;0.016;2023-04-06T03:31:00;1.67;;;1.58;;
44774;SDS011;31340;51.402;0.016;2023-04-06T03:33:41;1.20;;;1.10;;
44774;SDS011;31340;51.402;0.016;2023-04-06T03:36:13;1.30;;;1.20;;
44774;SDS011;31340;51.402;0.016;2023-04-06T03:38:43;1.55;;;1.23;;
44774;SDS011;31340;51.402;0.016;2023-04-06T03:41:12;1.35;;;1.25;;
44774;SDS011;31340;51.402;0.016;2023-04-06T03:43:46;1.15;;;1.05;;
44774;SDS011;31340;51.402;0.016;2023-04-06T03:46:14;2.42;;;1.20;;
44774;SDS011;31340;51.402;0.016;2023-04-06T03:48:42;2.10;;;1.73;;
44774;SDS011;31340;51.402;0.016;2023-04-06T03:51:10;2.35;;;1.85;;
44774;SDS011;31340;51.402;0.016;2023-04-06T03:53:38;7.05;;;2.00;;
44774;SDS011;31340;51.402;0.016;2023-04-06T03:56:06;3.20;;;2.90;;
44774;SDS011;31340;51.402;0.016;2023-04-06T03:58:34;3.25;;;2.72;;
44774;SDS011;31340;51.402;0.016;2023-04-06T04:01:02;4.25;;;3.65;;
44774;SDS011;31340;51.402;0.016;2023-04-06T04:03:29;5.30;;;4.40;;
44774;SDS011;31340;51.402;0.016;2023-04-06T04:05:57;6.90;;;5.28;;
44774;SDS011;31340;51.402;0.016;2023-04-06T04:08:26;6.60;;;5.63;;
44774;SDS011;31340;51.402;0.016;2023-04-06T04:10:53;7.93;;;6.35;;
44774;SDS011;31340;51.402;0.016;2023-04-06T04:13:22;8.95;;;6.82;;
44774;SDS011;31340;51.402;0.016;2023-04-06T04:15:51;10.27;;;7.93;;
44774;SDS011;31340;51.402;0.016;2023-04-06T04:18:19;13.18;;;8.20;;
44774;SDS011;31340;51.402;0.016;2023-04-06T04:20:47;12.75;;;10.25;;
44774;SDS011;31340;51.402;0.016;2023-04-06T04:23:15;13.02;;;9.68;;
44774;SDS011;31340;51.402;0.016;2023-04-06T04:25:43;12.35;;;9.45;;
44774;SDS011;31340;51.402;0.016;2023-04-06T04:28:10;13.23;;;10.25;;
44774;SDS011;31340;51.402;0.016;2023-04-06T04:30:40;12.40;;;10.13;;
44774;SDS011;31340;51.402;0.016;2023-04-06T04:33:10;16.47;;;11.23;;
44774;SDS011;31340;51.402;0.016;2023-04-06T04:35:37;17.35;;;11.90;;
44774;SDS011;31340;51.402;0.016;2023-04-06T04:38:07;16.75;;;12.05;;
44774;SDS011;31340;51.402;0.016;2023-04-06T04:40:39;19.13;;;12.30;;
44774;SDS011;31340;51.402;0.016;2023-04-06T04:43:09;20.50;;;13.25;;
44774;SDS011;31340;51.402;0.016;2023-04-06T04:45:38;19.25;;;13.40;;
44774;SDS011;31340;51.402;0.016;2023-04-06T04:48:26;19.38;;;13.13;;
44774;SDS011;31340;51.402;0.016;2023-04-06T04:51:00;19.65;;;13.35;;
44774;SDS011;31340;51.402;0.016;2023-04-06T04:53:39;19.95;;;12.95;;
44774;SDS011;31340;51.402;0.016;2023-04-06T04:56:16;20.13;;;12.43;;
44774;SDS011;31340;51.402;0.016;2023-04-06T04:58:46;19.77;;;13.13;;
44774;SDS011;31340;51.402;0.016;2023-04-06T05:01:14;21.02;;;12.90;;
44774;SDS011;31340;51.402;0.016;2023-04-06T05:03:43;18.10;;;12.52;;
44774;SDS011;31340;51.402;0.016;2023-04-06T05:06:14;20.85;;;12.75;;
44774;SDS011;31340;51.402;0.016;2023-04-06T05:08:43;19.35;;;13.10;;
44774;SDS011;31340;51.402;0.016;2023-04-06T05:11:11;21.58;;;13.55;;
44774;SDS011;31340;51.402;0.016;2023-04-06T05:13:44;19.58;;;13.02;;
44774;SDS011;31340;51.402;0.016;2023-04-06T05:16:17;22.95;;;14.15;;
44774;SDS011;31340;51.402;0.016;2023-04-06T05:18:45;21.40;;;12.05;;
44774;SDS011;31340;51.402;0.016;2023-04-06T05:21:15;21.20;;;13.93;;
44774;SDS011;31340;51.402;0.016;2023-04-06T05:23:59;23.40;;;14.23;;
44774;SDS011;31340;51.402;0.016;2023-04-06T05:26:31;22.85;;;13.57;;
44774;SDS011;31340;51.402;0.016;2023-04-06T05:29:04;24.58;;;13.90;;
44774;SDS011;31340;51.402;0.016;2023-04-06T05:34:03;26.15;;;14.35;;
44774;SDS011;31340;51.402;0.016;2023-04-06T05:36:34;21.70;;;13.52;;
44774;SDS011;31340;51.402;0.016;2023-04-06T05:39:07;29.20;;;14.80;;
44774;SDS011;31340;51.402;0.016;2023-04-06T05:41:43;26.13;;;13.75;;
44774;SDS011;31340;51.402;0.016;2023-04-06T05:44:12;23.25;;;13.13;;
44774;SDS011;31340;51.402;0.016;2023-04-06T05:46:45;26.02;;;13.57;;
44774;SDS011;31340;51.402;0.016;2023-04-06T05:49:16;23.88;;;13.10;;
44774;SDS011;31340;51.402;0.016;2023-04-06T05:51:43;24.55;;;13.35;;
44774;SDS011;31340;51.402;0.016;2023-04-06T05:54:12;25.50;;;13.88;;
44774;SDS011;31340;51.402;0.016;2023-04-06T05:56:41;26.77;;;13.63;;
44774;SDS011;31340;51.402;0.016;2023-04-06T05:59:11;25.53;;;13.07;;
44774;SDS011;31340;51.402;0.016;2023-04-06T06:01:40;28.45;;;14.95;;
44774;SDS011;31340;51.402;0.016;2023-04-06T06:04:07;24.55;;;13.60;;
44774;SDS011;31340;51.402;0.016;2023-04-06T06:06:37;26.70;;;13.63;;
44774;SDS011;31340;51.402;0.016;2023-04-06T06:09:28;24.13;;;13.05;;
44774;SDS011;31340;51.402;0.016;2023-04-06T06:12:09;24.65;;;12.90;;
44774;SDS011;31340;51.402;0.016;2023-04-06T06:14:40;25.45;;;13.68;;
44774;SDS011;31340;51.402;0.016;2023-04-06T06:17:08;24.85;;;13.80;;
44774;SDS011;31340;51.402;0.016;2023-04-06T06:19:36;25.92;;;13.63;;
44774;SDS011;31340;51.402;0.016;2023-04-06T06:22:06;21.73;;;12.52;;
44774;SDS011;31340;51.402;0.016;2023-04-06T06:24:38;22.92;;;12.13;;
44774;SDS011;31340;51.402;0.016;2023-04-06T06:27:06;21.05;;;12.40;;
44774;SDS011;31340;51.402;0.016;2023-04-06T06:29:36;21.60;;;11.45;;
44774;SDS011;31340;51.402;0.016;2023-04-06T06:32:04;22.45;;;12.30;;
44774;SDS011;31340;51.402;0.016;2023-04-06T06:34:32;19.30;;;11.90;;
44774;SDS011;31340;51.402;0.016;2023-04-06T06:37:03;21.98;;;11.10;;
44774;SDS011;31340;51.402;0.016;2023-04-06T06:39:30;23.38;;;11.75;;
44774;SDS011;31340;51.402;0.016;2023-04-06T06:41:58;18.45;;;10.75;;
44774;SDS011;31340;51.402;0.016;2023-04-06T06:44:45;18.65;;;10.68;;
44774;SDS011;31340;51.402;0.016;2023-04-06T06:47:13;20.45;;;11.20;;
44774;SDS011;31340;51.402;0.016;2023-04-06T06:49:43;15.38;;;10.00;;
44774;SDS011;31340;51.402;0.016;2023-04-06T06:52:11;14.35;;;8.82;;
44774;SDS011;31340;51.402;0.016;2023-04-06T06:54:38;14.73;;;8.45;;
44774;SDS011;31340;51.402;0.016;2023-04-06T06:57:06;12.93;;;8.13;;
44774;SDS011;31340;51.402;0.016;2023-04-06T06:59:34;13.13;;;7.82;;
44774;SDS011;31340;51.402;0.016;2023-04-06T07:02:01;11.48;;;7.40;;
44774;SDS011;31340;51.402;0.016;2023-04-06T07:04:29;11.50;;;7.88;;
44774;SDS011;31340;51.402;0.016;2023-04-06T07:06:57;10.65;;;7.38;;
44774;SDS011;31340;51.402;0.016;2023-04-06T07:09:24;12.90;;;7.53;;
44774;SDS011;31340;51.402;0.016;2023-04-06T07:11:53;11.73;;;7.20;;
44774;SDS011;31340;51.402;0.016;2023-04-06T07:14:21;12.20;;;8.32;;
44774;SDS011;31340;51.402;0.016;2023-04-06T07:16:48;10.13;;;7.07;;
44774;SDS011;31340;51.402;0.016;2023-04-06T07:19:17;9.95;;;7.00;;
44774;SDS011;31340;51.402;0.016;2023-04-06T07:21:45;12.93;;;8.00;;
44774;SDS011;31340;51.402;0.016;2023-04-06T07:24:12;11.95;;;7.68;;
44774;SDS011;31340;51.402;0.016;2023-04-06T07:26:40;11.23;;;7.40;;
44774;SDS011;31340;51.402;0.016;2023-04-06T07:29:08;9.85;;;7.43;;
44774;SDS011;31340;51.402;0.016;2023-04-06T07:31:36;11.98;;;7.60;;
44774;SDS011;31340;51.402;0.016;2023-04-06T07:34:04;13.52;;;8.13;;
44774;SDS011;31340;51.402;0.016;2023-04-06T07:36:32;10.07;;;7.32;;
44774;SDS011;31340;51.402;0.016;2023-04-06T07:39:00;11.10;;;7.68;;
44774;SDS011;31340;51.402;0.016;2023-04-06T07:41:27;10.52;;;7.22;;
44774;SDS011;31340;51.402;0.016;2023-04-06T07:43:55;7.97;;;5.90;;
44774;SDS011;31340;51.402;0.016;2023-04-06T07:46:23;10.95;;;6.53;;
44774;SDS011;31340;51.402;0.016;2023-04-06T07:48:52;9.90;;;5.97;;
44774;SDS011;31340;51.402;0.016;2023-04-06T07:51:19;7.75;;;5.93;;
44774;SDS011;31340;51.402;0.016;2023-04-06T07:53:47;7.43;;;5.18;;
44774;SDS011;31340;51.402;0.016;2023-04-06T07:56:14;8.00;;;5.38;;
44774;SDS011;31340;51.402;0.016;2023-04-06T07:58:42;9.75;;;5.55;;
44774;SDS011;31340;51.402;0.016;2023-04-06T08:01:10;6.60;;;5.15;;
44774;SDS011;31340;51.402;0.016;2023-04-06T08:03:37;8.00;;;4.93;;
44774;SDS011;31340;51.402;0.016;2023-04-06T08:06:06;6.45;;;3.40;;
44774;SDS011;31340;51.402;0.016;2023-04-06T08:08:33;12.40;;;7.05;;
44774;SDS011;31340;51.402;0.016;2023-04-06T08:11:01;7.03;;;3.35;;
44774;SDS011;31340;51.402;0.016;2023-04-06T08:13:29;4.75;;;2.80;;
44774;SDS011;31340;51.402;0.016;2023-04-06T08:15:57;4.32;;;2.33;;
44774;SDS011;31340;51.402;0.016;2023-04-06T08:18:27;9.97;;;2.47;;
44774;SDS011;31340;51.402;0.016;2023-04-06T08:20:56;7.80;;;3.65;;
44774;SDS011;31340;51.402;0.016;2023-04-06T08:23:24;9.57;;;2.70;;
44774;SDS011;31340;51.402;0.016;2023-04-06T08:25:51;4.72;;;2.05;;
44774;SDS011;31340;51.402;0.016;2023-04-06T08:28:21;13.27;;;4.47;;
44774;SDS011;31340;51.402;0.016;2023-04-06T08:30:48;12.27;;;3.30;;
44774;SDS011;31340;51.402;0.016;2023-04-06T08:33:16;8.13;;;3.03;;
44774;SDS011;31340;51.402;0.016;2023-04-06T08:35:43;8.68;;;2.75;;
44774;SDS011;31340;51.402;0.016;2023-04-06T08:38:11;4.78;;;1.85;;
44774;SDS011;31340;51.402;0.016;2023-04-06T08:40:39;9.90;;;2.33;;
44774;SDS011;31340;51.402;0.016;2023-04-06T08:43:08;8.73;;;2.20;;
44774;SDS011;31340;51.402;0.016;2023-04-06T08:45:40;8.15;;;2.20;;
44774;SDS011;31340;51.402;0.016;2023-04-06T08:48:08;10.70;;;2.47;;
44774;SDS011;31340;51.402;0.016;2023-04-06T08:50:37;13.57;;;7.80;;
44774;SDS011;31340;51.402;0.016;2023-04-06T08:53:06;9.50;;;3.78;;
44774;SDS011;31340;51.402;0.016;2023-04-06T08:55:35;11.80;;;2.30;;
44774;SDS011;31340;51.402;0.016;2023-04-06T08:58:03;10.63;;;2.75;;
44774;SDS011;31340;51.402;0.016;2023-04-06T09:00:37;7.15;;;2.15;;
44774;SDS011;31340;51.402;0.016;2023-04-06T09:03:06;8.80;;;2.80;;
44774;SDS011;31340;51.402;0.016;2023-04-06T09:05:35;8.32;;;3.15;;
44774;SDS011;31340;51.402;0.016;2023-04-06T09:08:03;9.23;;;2.97;;
44774;SDS011;31340;51.402;0.016;2023-04-06T09:10:31;10.05;;;2.55;;
44774;SDS011;31340;51.402;0.016;2023-04-06T09:13:05;9.60;;;3.47;;
44774;SDS011;31340;51.402;0.016;2023-04-06T09:15:34;11.18;;;2.97;;
44774;SDS011;31340;51.402;0.016;2023-04-06T09:18:02;7.20;;;2.53;;
44774;SDS011;31340;51.402;0.016;2023-04-06T09:20:30;11.45;;;2.20;;
44774;SDS011;31340;51.402;0.016;2023-04-06T09:22:58;5.05;;;2.15;;
44774;SDS011;31340;51.402;0.016;2023-04-06T09:25:26;10.23;;;2.95;;
44774;SDS011;31340;51.402;0.016;2023-04-06T09:28:01;22.38;;;4.75;;
44774;SDS011;31340;51.402;0.016;2023-04-06T09:30:30;5.43;;;2.30;;
44774;SDS011;31340;51.402;0.016;2023-04-06T09:32:58;14.10;;;3.63;;
44774;SDS011;31340;51.402;0.016;2023-04-06T09:35:27;12.88;;;2.55;;
44774;SDS011;31340;51.402;0.016;2023-04-06T09:37:56;10.25;;;2.20;;
44774;SDS011;31340;51.402;0.016;2023-04-06T09:40:24;11.60;;;3.03;;
44774;SDS011;31340;51.402;0.016;2023-04-06T09:42:52;12.50;;;2.53;;
44774;SDS011;31340;51.402;0.016;2023-04-06T09:45:21;11.57;;;2.97;;
44774;SDS011;31340;51.402;0.016;2023-04-06T09:47:48;10.98;;;2.42;;
44774;SDS011;31340;51.402;0.016;2023-04-06T09:50:19;8.57;;;3.55;;
44774;SDS011;31340;51.402;0.016;2023-04-06T09:52:48;10.90;;;3.13;;
44774;SDS011;31340;51.402;0.016;2023-04-06T09:55:22;11.17;;;3.10;;
44774;SDS011;31340;51.402;0.016;2023-04-06T09:58:05;14.88;;;3.17;;
44774;SDS011;31340;51.402;0.016;2023-04-06T10:00:42;13.63;;;3.17;;
44774;SDS011;31340;51.402;0.016;2023-04-06T10:03:21;12.13;;;2.97;;
44774;SDS011;31340;51.402;0.016;2023-04-06T10:06:07;14.02;;;3.30;;
44774;SDS011;31340;51.402;0.016;2023-04-06T10:08:39;11.77;;;3.35;;
44774;SDS011;31340;51.402;0.016;2023-04-06T10:11:08;10.63;;;3.22;;
44774;SDS011;31340;51.402;0.016;2023-04-06T10:13:37;11.68;;;3.28;;
44774;SDS011;31340;51.402;0.016;2023-04-06T10:16:05;14.15;;;3.33;;
44774;SDS011;31340;51.402;0.016;2023-04-06T10:18:34;14.73;;;3.15;;
44774;SDS011;31340;51.402;0.016;2023-04-06T10:21:04;8.13;;;2.92;;
44774;SDS011;31340;51.402;0.016;2023-04-06T10:23:37;10.35;;;2.72;;
44774;SDS011;31340;51.402;0.016;2023-04-06T10:26:17;12.70;;;3.47;;
44774;SDS011;31340;51.402;0.016;2023-04-06T10:28:48;13.00;;;2.88;;
44774;SDS011;31340;51.402;0.016;2023-04-06T10:31:27;11.45;;;3.05;;
44774;SDS011;31340;51.402;0.016;2023-04-06T10:33:55;11.23;;;2.50;;
44774;SDS011;31340;51.402;0.016;2023-04-06T10:36:25;14.30;;;2.90;;
44774;SDS011;31340;51.402;0.016;2023-04-06T10:38:58;7.73;;;2.30;;
44774;SDS011;31340;51.402;0.016;2023-04-06T10:41:36;15.00;;;3.08;;
44774;SDS011;31340;51.402;0.016;2023-04-06T10:44:16;11.10;;;2.28;;
44774;SDS011;31340;51.402;0.016;2023-04-06T10:46:54;8.73;;;2.22;;
44774;SDS011;31340;51.402;0.016;2023-04-06T10:49:27;9.23;;;2.47;;
44774;SDS011;31340;51.402;0.016;2023-04-06T10:51:55;8.63;;;2.40;;
44774;SDS011;31340;51.402;0.016;2023-04-06T10:54:24;6.20;;;1.95;;
44774;SDS011;31340;51.402;0.016;2023-04-06T10:56:53;9.20;;;2.10;;
44774;SDS011;31340;51.402;0.016;2023-04-06T10:59:23;7.93;;;2.17;;
44774;SDS011;31340;51.402;0.016;2023-04-06T11:01:52;7.63;;;2.67;;
44774;SDS011;31340;51.402;0.016;2023-04-06T11:04:21;7.95;;;2.05;;
44774;SDS011;31340;51.402;0.016;2023-04-06T11:06:50;6.43;;;2.13;;
44774;SDS011;31340;51.402;0.016;2023-04-06T11:09:23;8.73;;;2.10;;
44774;SDS011;31340;51.402;0.016;2023-04-06T11:11:52;7.13;;;1.67;;
44774;SDS011;31340;51.402;0.016;2023-04-06T11:14:20;4.53;;;1.92;;
44774;SDS011;31340;51.402;0.016;2023-04-06T11:16:48;7.15;;;1.75;;
44774;SDS011;31340;51.402;0.016;2023-04-06T11:19:18;4.57;;;1.90;;
44774;SDS011;31340;51.402;0.016;2023-04-06T11:21:46;4.93;;;1.33;;
44774;SDS011;31340;51.402;0.016;2023-04-06T11:24:16;3.33;;;1.50;;
44774;SDS011;31340;51.402;0.016;2023-04-06T11:26:56;5.50;;;1.77;;
44774;SDS011;31340;51.402;0.016;2023-04-06T11:29:26;6.80;;;2.95;;
44774;SDS011;31340;51.402;0.016;2023-04-06T11:32:02;6.90;;;1.65;;
44774;SDS011;31340;51.402;0.016;2023-04-06T11:34:33;6.95;;;1.80;;
44774;SDS011;31340;51.402;0.016;2023-04-06T11:37:06;4.75;;;1.60;;
44774;SDS011;31340;51.402;0.016;2023-04-06T11:39:39;7.18;;;1.90;;
44774;SDS011;31340;51.402;0.016;2023-04-06T11:42:10;9.00;;;1.70;;
44774;SDS011;31340;51.402;0.016;2023-04-06T11:44:38;4.57;;;1.77;;
44774;SDS011;31340;51.402;0.016;2023-04-06T11:47:08;4.97;;;1.40;;
44774;SDS011;31340;51.402;0.016;2023-04-06T11:49:37;6.25;;;1.77;;
44774;SDS011;31340;51.402;0.016;2023-04-06T11:52:24;4.47;;;1.83;;
44774;SDS011;31340;51.402;0.016;2023-04-06T11:54:54;6.10;;;2.00;;
44774;SDS011;31340;51.402;0.016;2023-04-06T11:57:23;3.97;;;2.03;;
44774;SDS011;31340;51.402;0.016;2023-04-06T11:59:52;8.63;;;2.20;;
44774;SDS011;31340;51.402;0.016;2023-04-06T12:02:20;6.13;;;1.90;;
44774;SDS011;31340;51.402;0.016;2023-04-06T12:04:47;5.82;;;1.63;;
44774;SDS011;31340;51.402;0.016;2023-04-06T12:07:15;5.22;;;1.77;;
44774;SDS011;31340;51.402;0.016;2023-04-06T12:09:43;6.53;;;1.83;;
44774;SDS011;31340;51.402;0.016;2023-04-06T12:12:11;4.10;;;1.70;;
44774;SDS011;31340;51.402;0.016;2023-04-06T12:14:38;5.07;;;1.80;;
44774;SDS011;31340;51.402;0.016;2023-04-06T12:17:06;4.68;;;1.70;;
44774;SDS011;31340;51.402;0.016;2023-04-06T12:19:34;9.38;;;2.03;;
44774;SDS011;31340;51.402;0.016;2023-04-06T12:22:01;7.82;;;1.80;;
44774;SDS011;31340;51.402;0.016;2023-04-06T12:24:29;5.85;;;1.73;;
44774;SDS011;31340;51.402;0.016;2023-04-06T12:26:57;6.43;;;1.92;;
44774;SDS011;31340;51.402;0.016;2023-04-06T12:29:35;3.22;;;1.80;;
44774;SDS011;31340;51.402;0.016;2023-04-06T12:32:03;5.30;;;1.50;;
44774;SDS011;31340;51.402;0.016;2023-04-06T12:34:31;7.07;;;1.75;;
44774;SDS011;31340;51.402;0.016;2023-04-06T12:36:59;4.53;;;1.73;;
44774;SDS011;31340;51.402;0.016;2023-04-06T12:39:27;5.95;;;1.80;;
44774;SDS011;31340;51.402;0.016;2023-04-06T12:41:55;5.60;;;1.25;;
44774;SDS011;31340;51.402;0.016;2023-04-06T12:44:23;2.53;;;1.27;;
44774;SDS011;31340;51.402;0.016;2023-04-06T12:46:52;4.47;;;1.20;;
44774;SDS011;31340;51.402;0.016;2023-04-06T12:49:20;4.00;;;1.48;;
44774;SDS011;31340;51.402;0.016;2023-04-06T12:51:48;4.18;;;1.42;;
44774;SDS011;31340;51.402;0.016;2023-04-06T12:54:17;3.78;;;1.20;;
44774;SDS011;31340;51.402;0.016;2023-04-06T12:56:44;4.05;;;1.25;;
44774;SDS011;31340;51.402;0.016;2023-04-06T12:59:12;3.00;;;1.25;;
44774;SDS011;31340;51.402;0.016;2023-04-06T13:01:41;2.35;;;1.00;;
44774;SDS011;31340;51.402;0.016;2023-04-06T13:04:08;2.20;;;0.90;;
44774;SDS011;31340;51.402;0.016;2023-04-06T13:06:36;4.00;;;0.98;;
44774;SDS011;31340;51.402;0.016;2023-04-06T13:09:04;4.20;;;1.00;;
44774;SDS011;31340;51.402;0.016;2023-04-06T13:11:32;6.18;;;0.90;;
44774;SDS011;31340;51.402;0.016;2023-04-06T13:14:00;2.85;;;0.82;;
44774;SDS011;31340;51.402;0.016;2023-04-06T13:16:27;2.40;;;0.82;;
44774;SDS011;31340;51.402;0.016;2023-04-06T13:18:56;4.15;;;0.85;;
44774;SDS011;31340;51.402;0.016;2023-04-06T13:21:24;2.45;;;1.02;;
44774;SDS011;31340;51.402;0.016;2023-04-06T13:23:51;4.72;;;1.23;;
44774;SDS011;31340;51.402;0.016;2023-04-06T13:26:19;2.60;;;0.98;;
44774;SDS011;31340;51.402;0.016;2023-04-06T13:28:48;6.40;;;1.33;;
44774;SDS011;31340;51.402;0.016;2023-04-06T13:31:16;4.57;;;1.30;;
44774;SDS011;31340;51.402;0.016;2023-04-06T13:33:44;3.67;;;0.82;;
44774;SDS011;31340;51.402;0.016;2023-04-06T13:36:12;6.05;;;1.38;;
44774;SDS011;31340;51.402;0.016;2023-04-06T13:38:44;3.50;;;0.90;;
44774;SDS011;31340;51.402;0.016;2023-04-06T13:41:20;3.25;;;1.00;;
44774;SDS011;31340;51.402;0.016;2023-04-06T13:43:48;4.13;;;1.08;;
44774;SDS011;31340;51.402;0.016;2023-04-06T13:46:16;2.92;;;1.10;;
44774;SDS011;31340;51.402;0.016;2023-04-06T13:48:44;3.38;;;1.00;;
44774;SDS011;31340;51.402;0.016;2023-04-06T13:51:12;4.45;;;1.20;;
44774;SDS011;31340;51.402;0.016;2023-04-06T13:53:40;5.25;;;1.17;;
44774;SDS011;31340;51.402;0.016;2023-04-06T13:56:08;6.93;;;1.20;;
44774;SDS011;31340;51.402;0.016;2023-04-06T13:58:36;6.88;;;1.23;;
44774;SDS011;31340;51.402;0.016;2023-04-06T14:03:34;6.55;;;1.10;;
44774;SDS011;31340;51.402;0.016;2023-04-06T14:06:09;5.13;;;1.30;;
44774;SDS011;31340;51.402;0.016;2023-04-06T14:08:53;3.15;;;1.05;;
44774;SDS011;31340;51.402;0.016;2023-04-06T14:11:21;3.10;;;1.45;;
44774;SDS011;31340;51.402;0.016;2023-04-06T14:13:49;6.60;;;1.20;;
44774;SDS011;31340;51.402;0.016;2023-04-06T14:16:17;5.63;;;1.42;;
44774;SDS011;31340;51.402;0.016;2023-04-06T14:18:46;2.72;;;1.13;;
44774;SDS011;31340;51.402;0.016;2023-04-06T14:21:14;4.82;;;1.20;;
44774;SDS011;31340;51.402;0.016;2023-04-06T14:23:41;5.00;;;1.33;;
44774;SDS011;31340;51.402;0.016;2023-04-06T14:26:10;6.18;;;1.20;;
44774;SDS011;31340;51.402;0.016;2023-04-06T14:28:38;6.15;;;1.50;;
44774;SDS011;31340;51.402;0.016;2023-04-06T14:31:10;5.55;;;1.83;;
44774;SDS011;31340;51.402;0.016;2023-04-06T14:33:40;5.10;;;1.10;;
44774;SDS011;31340;51.402;0.016;2023-04-06T14:36:09;7.00;;;1.60;;
44774;SDS011;31340;51.402;0.016;2023-04-06T14:38:37;4.32;;;1.42;;
44774;SDS011;31340;51.402;0.016;2023-04-06T14:41:07;4.68;;;1.42;;
44774;SDS011;31340;51.402;0.016;2023-04-06T14:43:35;5.20;;;1.70;;
44774;SDS011;31340;51.402;0.016;2023-04-06T14:46:03;5.80;;;1.63;;
44774;SDS011;31340;51.402;0.016;2023-04-06T14:48:31;4.35;;;1.15;;
44774;SDS011;31340;51.402;0.016;2023-04-06T14:50:58;7.40;;;1.55;;
44774;SDS011;31340;51.402;0.016;2023-04-06T14:53:26;3.50;;;1.70;;
44774;SDS011;31340;51.402;0.016;2023-04-06T14:55:56;5.47;;;1.58;;
44774;SDS011;31340;51.402;0.016;2023-04-06T14:58:24;9.18;;;2.15;;
44774;SDS011;31340;51.402;0.016;2023-04-06T15:00:59;7.55;;;1.85;;